Time;durP1;ratioP1;P1;durP2;ratioP2;P2;SDS_P1;SDS_P2;PMS_P1;PMS_P2;Temp;Humidity;BMP_temperature;BMP_pressure;BME280_temperature;BME280_humidity;BME280_pressure;Samples;Min_cycle;Max_cycle;Signal;HPM_P1;HPM_P2
2023/10/21 00:01:50;;;;;;;5.97;2.97;;;;;;;;;;5058219;28;20031;-66
2023/10/21 00:04:15;;;;;;;4.50;3.05;;;;;;;;;;5052751;28;21190;-66
2023/10/21 00:06:41;;;;;;;4.72;3.15;;;;;;;;;;5051608;28;20113;-66
2023/10/21 00:09:06;;;;;;;5.03;3.28;;;;;;;;;;5056448;28;20031;-66
2023/10/21 00:11:31;;;;;;;4.32;3.05;;;;;;;;;;5056380;28;20032;-66
2023/10/21 00:13:57;;;;;;;8.02;4.05;;;;;;;;;;5058061;28;20027;-66
2023/10/21 00:16:22;;;;;;;5.85;2.65;;;;;;;;;;5055601;28;20556;-66
2023/10/21 00:18:48;;;;;;;5.10;2.92;;;;;;;;;;5044922;28;20923;-66
2023/10/21 00:21:13;;;;;;;5.53;3.45;;;;;;;;;;5057274;28;20035;-66
2023/10/21 00:23:38;;;;;;;5.25;2.55;;;;;;;;;;5052755;28;20020;-66
2023/10/21 00:26:03;;;;;;;5.05;3.00;;;;;;;;;;5048160;28;20028;-66
2023/10/21 00:28:29;;;;;;;4.18;3.28;;;;;;;;;;5055284;28;20024;-66
2023/10/21 00:30:54;;;;;;;5.72;3.08;;;;;;;;;;5038878;28;20911;-66
2023/10/21 00:33:19;;;;;;;5.00;3.20;;;;;;;;;;5051175;28;20575;-66
2023/10/21 00:35:47;;;;;;;5.83;3.57;;;;;;;;;;5040650;28;20075;-66
2023/10/21 00:38:13;;;;;;;5.57;3.38;;;;;;;;;;5052231;28;20290;-66
2023/10/21 00:40:38;;;;;;;4.68;3.28;;;;;;;;;;5055626;28;20039;-67
2023/10/21 00:43:04;;;;;;;4.68;2.83;;;;;;;;;;5055677;28;20031;-67
2023/10/21 00:45:29;;;;;;;4.63;2.83;;;;;;;;;;5043937;28;20035;-66
2023/10/21 00:47:55;;;;;;;4.25;3.35;;;;;;;;;;5058154;28;20024;-66
2023/10/21 00:50:20;;;;;;;3.90;2.72;;;;;;;;;;5052873;28;20027;-65
2023/10/21 00:52:48;;;;;;;5.03;3.00;;;;;;;;;;5046567;28;20085;-66
2023/10/21 00:55:14;;;;;;;4.10;2.55;;;;;;;;;;5046777;28;20017;-67
2023/10/21 00:57:39;;;;;;;5.03;3.00;;;;;;;;;;5047661;28;20032;-66
2023/10/21 01:00:10;;;;;;;4.95;3.00;;;;;;;;;;5054294;28;20085;-66
2023/10/21 01:02:36;;;;;;;5.30;3.30;;;;;;;;;;5056173;28;20020;-67
2023/10/21 01:05:02;;;;;;;5.22;2.92;;;;;;;;;;5055961;28;20446;-69
2023/10/21 01:07:27;;;;;;;5.43;3.13;;;;;;;;;;5050549;28;20023;-66
2023/10/21 01:09:53;;;;;;;7.45;3.38;;;;;;;;;;5055339;28;20077;-67
2023/10/21 01:12:18;;;;;;;4.78;2.60;;;;;;;;;;5055111;28;20139;-67
2023/10/21 01:14:44;;;;;;;3.65;2.65;;;;;;;;;;5046370;28;20016;-66
2023/10/21 01:17:09;;;;;;;3.85;2.67;;;;;;;;;;5054075;28;20137;-66
2023/10/21 01:19:34;;;;;;;4.45;2.75;;;;;;;;;;5053868;28;20020;-67
2023/10/21 01:21:59;;;;;;;7.17;2.73;;;;;;;;;;5054722;28;20974;-66
2023/10/21 01:24:25;;;;;;;6.43;3.25;;;;;;;;;;5055093;28;20844;-67
2023/10/21 01:26:50;;;;;;;6.43;3.00;;;;;;;;;;5054910;28;20090;-66
2023/10/21 01:29:15;;;;;;;5.57;3.50;;;;;;;;;;5056087;28;20028;-66
2023/10/21 01:31:40;;;;;;;4.60;2.77;;;;;;;;;;5054024;28;20288;-66
2023/10/21 01:34:05;;;;;;;4.83;3.30;;;;;;;;;;5056398;28;20281;-67
2023/10/21 01:36:31;;;;;;;5.03;3.28;;;;;;;;;;5042789;28;20295;-66
2023/10/21 01:38:56;;;;;;;5.03;3.10;;;;;;;;;;5055747;28;20024;-66
2023/10/21 01:41:21;;;;;;;4.68;2.40;;;;;;;;;;5057955;28;20266;-67
2023/10/21 01:43:46;;;;;;;4.00;2.72;;;;;;;;;;5059155;28;20588;-66
2023/10/21 01:46:12;;;;;;;6.50;2.50;;;;;;;;;;5062030;28;20030;-66
2023/10/21 01:48:37;;;;;;;4.70;2.65;;;;;;;;;;5052490;28;20047;-66
2023/10/21 01:51:05;;;;;;;4.28;2.42;;;;;;;;;;5052993;28;20020;-66
2023/10/21 01:53:34;;;;;;;4.07;2.90;;;;;;;;;;5059439;28;20024;-67
2023/10/21 01:56:00;;;;;;;5.00;2.63;;;;;;;;;;5054428;28;20148;-66
2023/10/21 01:58:25;;;;;;;3.63;2.45;;;;;;;;;;5053978;28;20032;-66
2023/10/21 02:00:50;;;;;;;4.37;2.80;;;;;;;;;;5050538;28;20765;-66
2023/10/21 02:03:15;;;;;;;4.33;2.77;;;;;;;;;;5056126;28;21048;-66
2023/10/21 02:05:41;;;;;;;3.50;2.60;;;;;;;;;;5060562;28;20269;-66
2023/10/21 02:08:06;;;;;;;5.03;2.95;;;;;;;;;;5056503;28;20278;-66
2023/10/21 02:10:32;;;;;;;4.60;2.65;;;;;;;;;;5055187;28;20024;-66
2023/10/21 02:12:57;;;;;;;4.33;2.83;;;;;;;;;;5054952;28;20867;-66
2023/10/21 02:15:22;;;;;;;3.90;2.47;;;;;;;;;;5048615;28;21062;-66
2023/10/21 02:17:48;;;;;;;5.38;2.78;;;;;;;;;;5052833;28;20096;-69
2023/10/21 02:20:14;;;;;;;4.93;2.85;;;;;;;;;;5058978;28;20030;-68
2023/10/21 02:22:39;;;;;;;6.57;2.92;;;;;;;;;;5058736;28;20035;-68
2023/10/21 02:25:07;;;;;;;4.00;2.58;;;;;;;;;;5044810;28;20925;-68
2023/10/21 02:27:32;;;;;;;4.85;2.83;;;;;;;;;;5047987;28;20074;-68
2023/10/21 02:29:58;;;;;;;3.63;2.30;;;;;;;;;;5042178;28;20722;-68
2023/10/21 02:32:23;;;;;;;4.80;2.65;;;;;;;;;;5041930;28;20289;-68
2023/10/21 02:34:49;;;;;;;4.43;2.57;;;;;;;;;;5045719;28;20032;-68
2023/10/21 02:37:14;;;;;;;6.38;2.70;;;;;;;;;;5058346;28;20297;-68
2023/10/21 02:39:39;;;;;;;4.27;2.90;;;;;;;;;;5055785;28;20082;-68
2023/10/21 02:42:04;;;;;;;4.35;2.30;;;;;;;;;;5055209;28;20281;-68
2023/10/21 02:44:29;;;;;;;4.40;2.58;;;;;;;;;;5057322;28;20024;-67
2023/10/21 02:46:55;;;;;;;5.95;2.72;;;;;;;;;;5049349;28;20069;-66
2023/10/21 02:49:20;;;;;;;4.43;2.27;;;;;;;;;;5058218;28;20130;-67
2023/10/21 02:51:49;;;;;;;4.45;2.47;;;;;;;;;;5058383;28;20350;-67
2023/10/21 02:54:14;;;;;;;3.63;2.35;;;;;;;;;;5056180;28;20024;-67
2023/10/21 02:56:41;;;;;;;3.70;2.10;;;;;;;;;;5056884;28;20137;-67
2023/10/21 02:59:07;;;;;;;5.15;2.72;;;;;;;;;;5057245;28;20286;-67
2023/10/21 03:01:33;;;;;;;6.07;2.53;;;;;;;;;;5042903;28;20041;-67
2023/10/21 03:03:58;;;;;;;4.40;2.10;;;;;;;;;;5046564;28;20024;-67
2023/10/21 03:06:23;;;;;;;5.10;2.17;;;;;;;;;;5056011;28;20062;-67
2023/10/21 03:08:49;;;;;;;4.65;2.63;;;;;;;;;;5054652;28;20266;-67
2023/10/21 03:11:14;;;;;;;3.80;2.15;;;;;;;;;;5048833;28;20781;-66
2023/10/21 03:13:39;;;;;;;3.00;2.10;;;;;;;;;;5050563;28;20142;-66
2023/10/21 03:16:05;;;;;;;5.20;2.55;;;;;;;;;;5046122;28;20031;-66
2023/10/21 03:18:31;;;;;;;3.60;2.25;;;;;;;;;;5056139;28;20072;-67
2023/10/21 03:20:56;;;;;;;4.23;2.27;;;;;;;;;;5045063;28;20020;-68
2023/10/21 03:23:21;;;;;;;5.60;2.20;;;;;;;;;;5056854;28;20293;-68
2023/10/21 03:25:56;;;;;;;5.53;1.97;;;;;;;;;;5048456;28;20031;-66
2023/10/21 03:28:26;;;;;;;5.63;2.58;;;;;;;;;;5041372;28;20393;-67
2023/10/21 03:30:54;;;;;;;4.47;2.35;;;;;;;;;;5050628;28;20034;-66
2023/10/21 03:33:19;;;;;;;3.70;2.40;;;;;;;;;;5058856;28;20035;-67
2023/10/21 03:35:51;;;;;;;6.25;2.20;;;;;;;;;;5058246;28;20040;-67
2023/10/21 03:38:17;;;;;;;4.70;2.10;;;;;;;;;;5055736;28;20900;-67
2023/10/21 03:40:42;;;;;;;6.65;2.10;;;;;;;;;;5045499;28;20059;-67
2023/10/21 03:43:07;;;;;;;6.30;1.95;;;;;;;;;;5059704;28;20686;-68
2023/10/21 03:45:34;;;;;;;4.22;2.38;;;;;;;;;;5053347;28;20039;-66
2023/10/21 03:48:00;;;;;;;4.55;1.83;;;;;;;;;;5055979;28;20078;-67
2023/10/21 03:50:25;;;;;;;5.37;2.03;;;;;;;;;;5054630;28;20882;-66
2023/10/21 03:52:50;;;;;;;4.60;2.30;;;;;;;;;;5056471;28;21091;-67
2023/10/21 03:55:16;;;;;;;3.90;1.65;;;;;;;;;;5050684;28;20176;-66
2023/10/21 03:57:41;;;;;;;3.22;1.75;;;;;;;;;;5050143;28;20090;-67
2023/10/21 04:00:07;;;;;;;4.22;2.00;;;;;;;;;;5048594;28;20887;-66
2023/10/21 04:02:33;;;;;;;6.90;2.17;;;;;;;;;;5055254;28;20024;-66
2023/10/21 04:04:58;;;;;;;4.60;2.03;;;;;;;;;;5054992;28;20016;-67
2023/10/21 04:07:23;;;;;;;3.70;1.80;;;;;;;;;;5052600;28;20262;-66
2023/10/21 04:09:48;;;;;;;3.50;2.10;;;;;;;;;;5056627;28;20028;-66
2023/10/21 04:12:14;;;;;;;3.92;2.20;;;;;;;;;;5054739;28;20294;-66
2023/10/21 04:14:39;;;;;;;4.72;2.28;;;;;;;;;;5057255;28;20024;-66
2023/10/21 04:17:05;;;;;;;4.75;2.15;;;;;;;;;;5051896;28;20093;-67
2023/10/21 04:19:30;;;;;;;2.72;1.60;;;;;;;;;;5047687;28;20024;-67
2023/10/21 04:21:56;;;;;;;6.60;1.83;;;;;;;;;;5055307;28;20102;-67
2023/10/21 04:24:21;;;;;;;4.57;2.03;;;;;;;;;;5056655;28;20060;-67
2023/10/21 04:26:46;;;;;;;3.23;2.17;;;;;;;;;;5055401;28;20024;-67
2023/10/21 04:29:12;;;;;;;3.23;1.70;;;;;;;;;;5047516;28;20279;-67
2023/10/21 04:31:38;;;;;;;4.70;1.95;;;;;;;;;;5054359;28;20266;-67
2023/10/21 04:34:04;;;;;;;3.08;1.38;;;;;;;;;;5057300;28;20901;-67
2023/10/21 04:36:29;;;;;;;4.47;1.75;;;;;;;;;;5052485;28;20036;-67
2023/10/21 04:38:54;;;;;;;3.58;1.63;;;;;;;;;;5047636;28;20031;-67
2023/10/21 04:41:19;;;;;;;2.80;1.67;;;;;;;;;;5053849;28;20899;-67
2023/10/21 04:43:45;;;;;;;2.90;1.45;;;;;;;;;;5048182;28;20347;-67
2023/10/21 04:46:11;;;;;;;3.60;1.77;;;;;;;;;;5058864;28;20125;-67
2023/10/21 04:48:36;;;;;;;3.33;1.63;;;;;;;;;;5057137;28;20377;-67
2023/10/21 04:51:02;;;;;;;4.10;2.10;;;;;;;;;;5055709;28;20028;-67
2023/10/21 04:53:27;;;;;;;2.95;1.85;;;;;;;;;;5044584;28;20496;-67
2023/10/21 04:55:52;;;;;;;4.97;1.85;;;;;;;;;;5052411;28;20897;-67
2023/10/21 04:58:17;;;;;;;3.87;1.93;;;;;;;;;;5049473;28;20021;-67
2023/10/21 05:00:42;;;;;;;5.70;1.77;;;;;;;;;;5046019;28;20262;-67
2023/10/21 05:03:08;;;;;;;4.68;2.05;;;;;;;;;;5057420;28;20285;-67
2023/10/21 05:05:34;;;;;;;4.32;1.85;;;;;;;;;;5061419;28;20687;-67
2023/10/21 05:08:00;;;;;;;3.20;1.92;;;;;;;;;;5055192;28;20024;-67
2023/10/21 05:10:25;;;;;;;2.60;1.70;;;;;;;;;;5045582;28;20723;-67
2023/10/21 05:12:51;;;;;;;3.30;1.90;;;;;;;;;;5054898;28;20550;-67
2023/10/21 05:15:17;;;;;;;3.00;1.80;;;;;;;;;;5058031;28;20909;-67
2023/10/21 05:17:42;;;;;;;6.22;1.77;;;;;;;;;;5056080;28;20739;-67
2023/10/21 05:20:08;;;;;;;4.38;1.90;;;;;;;;;;5056622;28;20077;-67
2023/10/21 05:22:33;;;;;;;4.25;1.95;;;;;;;;;;5063588;28;21001;-67
2023/10/21 05:24:58;;;;;;;3.95;2.25;;;;;;;;;;5059248;28;20032;-68
2023/10/21 05:27:24;;;;;;;3.67;1.93;;;;;;;;;;5060389;28;20593;-67
2023/10/21 05:29:49;;;;;;;2.63;1.67;;;;;;;;;;5060151;28;20708;-67
2023/10/21 05:32:17;;;;;;;6.77;2.30;;;;;;;;;;5059987;28;20089;-67
2023/10/21 05:34:42;;;;;;;3.33;1.90;;;;;;;;;;5052554;28;20273;-67
2023/10/21 05:37:08;;;;;;;3.47;1.63;;;;;;;;;;5055021;28;20797;-67
2023/10/21 05:39:33;;;;;;;3.65;1.95;;;;;;;;;;5053451;28;20113;-67
2023/10/21 05:41:59;;;;;;;3.67;2.03;;;;;;;;;;5052499;28;20440;-66
2023/10/21 05:44:24;;;;;;;3.33;1.75;;;;;;;;;;5057329;28;20032;-65
2023/10/21 05:46:49;;;;;;;3.30;1.60;;;;;;;;;;5053833;28;20062;-66
2023/10/21 05:49:14;;;;;;;5.50;2.38;;;;;;;;;;5055555;28;20317;-66
2023/10/21 05:51:40;;;;;;;4.50;1.90;;;;;;;;;;5045655;28;20024;-67
2023/10/21 05:54:05;;;;;;;4.15;2.00;;;;;;;;;;5059397;28;20026;-66
2023/10/21 05:56:30;;;;;;;3.42;1.25;;;;;;;;;;5093545;28;20024;-66
2023/10/21 05:58:55;;;;;;;4.10;1.77;;;;;;;;;;5093710;28;20609;-66
2023/10/21 06:01:21;;;;;;;6.72;1.85;;;;;;;;;;5093729;28;20760;-66
2023/10/21 06:03:46;;;;;;;3.08;1.52;;;;;;;;;;5094454;28;20020;-66
2023/10/21 06:06:11;;;;;;;3.03;1.70;;;;;;;;;;5093679;28;20024;-66
2023/10/21 06:08:37;;;;;;;3.40;1.40;;;;;;;;;;5093609;28;20156;-67
2023/10/21 06:11:02;;;;;;;6.70;1.73;;;;;;;;;;5093783;28;20020;-67
2023/10/21 06:13:27;;;;;;;3.75;1.30;;;;;;;;;;5092736;28;20024;-67
2023/10/21 06:15:52;;;;;;;3.15;1.13;;;;;;;;;;5092856;28;20028;-67
2023/10/21 06:18:18;;;;;;;3.08;1.30;;;;;;;;;;5093097;28;20031;-66
2023/10/21 06:20:49;;;;;;;4.75;1.17;;;;;;;;;;5090308;28;20360;-67
2023/10/21 06:23:14;;;;;;;1.48;0.70;;;;;;;;;;5075330;28;20028;-67
2023/10/21 06:25:40;;;;;;;2.28;1.05;;;;;;;;;;5092501;28;20036;-66
2023/10/21 06:28:05;;;;;;;2.00;0.60;;;;;;;;;;5093818;28;20036;-67
2023/10/21 06:30:30;;;;;;;1.50;0.60;;;;;;;;;;5093657;28;20028;-66
2023/10/21 06:32:55;;;;;;;2.10;0.70;;;;;;;;;;5081945;28;20059;-66
2023/10/21 06:35:21;;;;;;;0.73;0.40;;;;;;;;;;5093455;28;20019;-66
2023/10/21 06:37:48;;;;;;;1.55;0.60;;;;;;;;;;5093005;28;20293;-66
2023/10/21 06:40:13;;;;;;;0.68;0.20;;;;;;;;;;5093154;28;20020;-65
2023/10/21 06:42:38;;;;;;;1.08;0.40;;;;;;;;;;5092049;28;20035;-65
2023/10/21 06:45:04;;;;;;;3.60;0.40;;;;;;;;;;5091887;28;20051;-66
2023/10/21 06:47:29;;;;;;;0.93;0.35;;;;;;;;;;5086632;28;20298;-65
2023/10/21 06:49:54;;;;;;;0.35;0.15;;;;;;;;;;5073890;28;20548;-65
2023/10/21 06:52:20;;;;;;;0.73;0.35;;;;;;;;;;5092485;28;20024;-65
2023/10/21 06:54:45;;;;;;;3.65;1.25;;;;;;;;;;5093261;28;20093;-65
2023/10/21 06:57:10;;;;;;;1.27;0.55;;;;;;;;;;5074650;28;20037;-65
2023/10/21 06:59:35;;;;;;;1.70;0.40;;;;;;;;;;5088141;28;20024;-65
2023/10/21 07:02:01;;;;;;;1.03;0.40;;;;;;;;;;5093641;28;20266;-65
2023/10/21 07:04:26;;;;;;;0.30;0.20;;;;;;;;;;5092911;28;20274;-65
2023/10/21 07:06:51;;;;;;;0.98;0.38;;;;;;;;;;5085768;28;20033;-65
2023/10/21 07:09:16;;;;;;;0.75;0.30;;;;;;;;;;5087458;28;20027;-65
2023/10/21 07:11:42;;;;;;;1.20;0.30;;;;;;;;;;5092728;28;20459;-65
2023/10/21 07:14:08;;;;;;;0.55;0.20;;;;;;;;;;5091721;28;20027;-66
2023/10/21 07:16:33;;;;;;;0.55;0.17;;;;;;;;;;5087870;28;20032;-65
2023/10/21 07:18:58;;;;;;;0.40;0.10;;;;;;;;;;5085632;28;20032;-65
2023/10/21 07:21:24;;;;;;;1.67;0.23;;;;;;;;;;5085815;28;20027;-69
2023/10/21 07:23:49;;;;;;;0.75;0.38;;;;;;;;;;5072601;28;20293;-65
2023/10/21 07:26:14;;;;;;;0.30;0.20;;;;;;;;;;5081095;28;20049;-75
2023/10/21 07:28:40;;;;;;;1.15;0.38;;;;;;;;;;5080636;28;20082;-66
2023/10/21 07:31:05;;;;;;;0.70;0.30;;;;;;;;;;5091890;28;20382;-65
2023/10/21 07:33:30;;;;;;;0.60;0.20;;;;;;;;;;5091712;28;20494;-65
2023/10/21 07:35:56;;;;;;;1.20;0.25;;;;;;;;;;5091703;28;20055;-65
2023/10/21 07:38:21;;;;;;;1.23;0.30;;;;;;;;;;5092048;28;20469;-67
2023/10/21 07:40:47;;;;;;;0.40;0.15;;;;;;;;;;5088623;28;20032;-65
2023/10/21 07:43:13;;;;;;;0.43;0.20;;;;;;;;;;5092113;28;20391;-66
2023/10/21 07:45:40;;;;;;;0.32;0.10;;;;;;;;;;5087223;28;20057;-65
2023/10/21 07:48:06;;;;;;;0.13;0.10;;;;;;;;;;5080488;28;20028;-67
2023/10/21 07:50:31;;;;;;;1.55;0.38;;;;;;;;;;5082015;28;20027;-65
2023/10/21 07:52:58;;;;;;;1.07;0.30;;;;;;;;;;5087543;28;20094;-65
2023/10/21 07:55:23;;;;;;;0.95;0.20;;;;;;;;;;5086496;28;20323;-66
2023/10/21 07:57:48;;;;;;;0.95;0.45;;;;;;;;;;5048681;28;20833;-66
2023/10/21 08:00:14;;;;;;;0.70;0.30;;;;;;;;;;5048755;28;20024;-66
2023/10/21 08:02:42;;;;;;;0.50;0.20;;;;;;;;;;5048055;28;20024;-65
2023/10/21 08:05:08;;;;;;;2.83;0.38;;;;;;;;;;5049611;28;20073;-65
2023/10/21 08:07:34;;;;;;;0.93;0.30;;;;;;;;;;5048054;28;20849;-66
2023/10/21 08:09:59;;;;;;;0.98;0.30;;;;;;;;;;5052138;28;20254;-66
2023/10/21 08:12:24;;;;;;;2.58;0.32;;;;;;;;;;5058593;28;20929;-64
2023/10/21 08:14:50;;;;;;;0.60;0.30;;;;;;;;;;5051094;28;20024;-66
2023/10/21 08:17:15;;;;;;;2.03;0.30;;;;;;;;;;5048178;28;20032;-67
2023/10/21 08:19:41;;;;;;;0.40;0.20;;;;;;;;;;5046300;28;20290;-66
2023/10/21 08:22:06;;;;;;;4.78;0.20;;;;;;;;;;5040484;28;20921;-65
2023/10/21 08:24:32;;;;;;;0.83;0.30;;;;;;;;;;5048825;28;20016;-65
2023/10/21 08:26:57;;;;;;;2.17;0.22;;;;;;;;;;5044860;28;20281;-65
2023/10/21 08:29:22;;;;;;;1.52;0.38;;;;;;;;;;5046124;28;20016;-66
2023/10/21 08:31:48;;;;;;;0.43;0.20;;;;;;;;;;5054674;28;20032;-66
2023/10/21 08:34:13;;;;;;;1.00;0.50;;;;;;;;;;5044917;28;20286;-65
2023/10/21 08:36:39;;;;;;;0.95;0.32;;;;;;;;;;5061079;28;20557;-63
2023/10/21 08:39:07;;;;;;;0.70;0.20;;;;;;;;;;5061031;28;20031;-66
2023/10/21 08:41:35;;;;;;;1.08;0.30;;;;;;;;;;5043724;28;20029;-66
2023/10/21 08:44:00;;;;;;;1.67;0.52;;;;;;;;;;5044044;28;20028;-66
2023/10/21 08:46:26;;;;;;;1.65;0.40;;;;;;;;;;5049699;28;20070;-67
2023/10/21 08:48:52;;;;;;;1.33;0.30;;;;;;;;;;5047338;28;20024;-65
2023/10/21 08:51:20;;;;;;;4.65;0.35;;;;;;;;;;5052573;28;20020;-66
2023/10/21 08:53:49;;;;;;;3.63;0.45;;;;;;;;;;5049326;28;20037;-65
2023/10/21 08:56:14;;;;;;;3.45;0.82;;;;;;;;;;5051842;28;20032;-65
2023/10/21 08:58:40;;;;;;;1.42;0.40;;;;;;;;;;5053648;28;20054;-65
2023/10/21 09:01:06;;;;;;;1.75;0.60;;;;;;;;;;5048447;28;20028;-66
2023/10/21 09:03:32;;;;;;;0.68;0.20;;;;;;;;;;5037904;28;20123;-66
2023/10/21 09:06:11;;;;;;;0.60;0.20;;;;;;;;;;5030088;28;20050;-66
2023/10/21 09:08:37;;;;;;;4.00;0.63;;;;;;;;;;5042460;28;20030;-65
2023/10/21 09:11:08;;;;;;;0.95;0.30;;;;;;;;;;5044096;28;20036;-65
2023/10/21 09:13:40;;;;;;;1.10;0.32;;;;;;;;;;5048246;28;20040;-66
2023/10/21 09:16:26;;;;;;;1.63;0.40;;;;;;;;;;5041626;28;20020;-65
2023/10/21 09:18:57;;;;;;;1.63;0.40;;;;;;;;;;5045401;28;20129;-66
2023/10/21 09:21:32;;;;;;;1.15;0.28;;;;;;;;;;5046858;28;20018;-65
2023/10/21 09:23:58;;;;;;;1.90;0.38;;;;;;;;;;5039741;28;20941;-66
2023/10/21 09:26:30;;;;;;;1.10;0.28;;;;;;;;;;5046650;28;20024;-66
2023/10/21 09:29:10;;;;;;;2.30;0.60;;;;;;;;;;5045716;28;20020;-65
2023/10/21 09:31:41;;;;;;;1.58;0.60;;;;;;;;;;5066435;28;20039;-65
2023/10/21 09:34:06;;;;;;;1.75;0.50;;;;;;;;;;5060680;28;20020;-66
2023/10/21 09:36:38;;;;;;;1.30;0.47;;;;;;;;;;5049654;28;20290;-65
2023/10/21 09:39:04;;;;;;;1.75;0.43;;;;;;;;;;5067448;28;20032;-65
2023/10/21 09:41:29;;;;;;;2.33;0.50;;;;;;;;;;5049326;28;20020;-65
2023/10/21 09:43:56;;;;;;;3.08;0.30;;;;;;;;;;5047054;28;20016;-65
2023/10/21 09:46:25;;;;;;;2.25;0.60;;;;;;;;;;5053630;28;20028;-65
2023/10/21 09:48:51;;;;;;;0.30;0.10;;;;;;;;;;5064297;28;20036;-65
2023/10/21 09:51:17;;;;;;;1.55;0.40;;;;;;;;;;5058391;28;20020;-65
2023/10/21 09:53:47;;;;;;;2.22;0.57;;;;;;;;;;5046921;28;20035;-66
2023/10/21 09:56:15;;;;;;;3.53;0.43;;;;;;;;;;5066583;28;20024;-65
2023/10/21 09:58:40;;;;;;;1.38;0.45;;;;;;;;;;5070023;28;20035;-66
2023/10/21 10:01:07;;;;;;;1.35;0.30;;;;;;;;;;5084347;28;20028;-64
2023/10/21 10:03:36;;;;;;;2.20;0.65;;;;;;;;;;5071473;28;20486;-67
2023/10/21 10:06:04;;;;;;;2.78;0.52;;;;;;;;;;5089934;28;20105;-63
2023/10/21 10:08:33;;;;;;;1.23;0.50;;;;;;;;;;5087533;28;20086;-66
2023/10/21 10:11:01;;;;;;;1.13;0.40;;;;;;;;;;5062373;28;20024;-65
2023/10/21 10:13:27;;;;;;;3.58;0.75;;;;;;;;;;5062188;28;20017;-65
2023/10/21 10:15:54;;;;;;;3.40;0.55;;;;;;;;;;5084816;28;20024;-64
2023/10/21 10:18:21;;;;;;;1.60;0.47;;;;;;;;;;5082250;28;20036;-64
2023/10/21 10:20:51;;;;;;;0.95;0.30;;;;;;;;;;5087136;28;20406;-64
2023/10/21 10:23:18;;;;;;;2.50;0.50;;;;;;;;;;5089970;28;20016;-65
2023/10/21 10:25:44;;;;;;;2.30;0.60;;;;;;;;;;5088524;28;20047;-64
2023/10/21 10:28:19;;;;;;;2.95;0.65;;;;;;;;;;5090055;28;20070;-65
2023/10/21 10:30:45;;;;;;;1.58;0.40;;;;;;;;;;5086273;28;20024;-65
2023/10/21 10:33:15;;;;;;;2.22;0.55;;;;;;;;;;5090511;28;20039;-65
2023/10/21 10:35:42;;;;;;;1.05;0.35;;;;;;;;;;5057663;28;20028;-65
2023/10/21 10:38:19;;;;;;;1.35;0.45;;;;;;;;;;5070355;28;20035;-67
2023/10/21 10:40:45;;;;;;;1.88;0.65;;;;;;;;;;5069173;28;20075;-67
2023/10/21 10:43:10;;;;;;;2.90;0.75;;;;;;;;;;5086675;28;20020;-67
2023/10/21 10:45:36;;;;;;;1.58;0.73;;;;;;;;;;5060321;28;20136;-64
2023/10/21 10:48:02;;;;;;;3.15;0.80;;;;;;;;;;5047014;28;20025;-65
2023/10/21 10:50:28;;;;;;;2.65;0.70;;;;;;;;;;5052406;28;20022;-65
2023/10/21 10:52:55;;;;;;;2.55;0.68;;;;;;;;;;5070484;28;20119;-65
2023/10/21 10:55:21;;;;;;;1.52;0.63;;;;;;;;;;5082852;28;20505;-63
2023/10/21 10:57:47;;;;;;;2.20;0.55;;;;;;;;;;5077782;28;20035;-65
2023/10/21 11:00:20;;;;;;;2.97;0.65;;;;;;;;;;5089335;28;20020;-64
2023/10/21 11:02:46;;;;;;;1.83;0.50;;;;;;;;;;5083896;28;20042;-65
2023/10/21 11:05:20;;;;;;;5.60;0.98;;;;;;;;;;5090809;28;20028;-65
2023/10/21 11:07:46;;;;;;;4.72;0.82;;;;;;;;;;5082811;28;20081;-64
2023/10/21 11:10:14;;;;;;;4.20;0.70;;;;;;;;;;5084528;28;20019;-65
2023/10/21 11:12:40;;;;;;;3.90;0.70;;;;;;;;;;5090707;28;20032;-65
2023/10/21 11:15:06;;;;;;;3.88;0.80;;;;;;;;;;5090664;28;20036;-64
2023/10/21 11:17:32;;;;;;;4.70;1.10;;;;;;;;;;5087584;28;20020;-64
2023/10/21 11:19:58;;;;;;;4.13;0.82;;;;;;;;;;5090221;28;20482;-64
2023/10/21 11:22:26;;;;;;;4.13;0.80;;;;;;;;;;5090414;28;20024;-64
2023/10/21 11:24:52;;;;;;;9.38;1.08;;;;;;;;;;5088976;28;20020;-66
2023/10/21 11:27:18;;;;;;;2.00;0.80;;;;;;;;;;5075213;28;20040;-65
2023/10/21 11:29:43;;;;;;;2.72;0.60;;;;;;;;;;5085582;28;20036;-65
2023/10/21 11:32:14;;;;;;;4.30;0.88;;;;;;;;;;5089814;28;20808;-64
2023/10/21 11:34:45;;;;;;;5.18;0.90;;;;;;;;;;5089643;28;20028;-64
2023/10/21 11:37:11;;;;;;;7.13;0.60;;;;;;;;;;5089482;28;20028;-65
2023/10/21 11:39:39;;;;;;;1.90;0.70;;;;;;;;;;5089401;28;20073;-65
2023/10/21 11:42:13;;;;;;;2.75;0.80;;;;;;;;;;5090244;28;20024;-65
2023/10/21 11:44:39;;;;;;;1.65;0.52;;;;;;;;;;5089882;28;20032;-65
2023/10/21 11:47:06;;;;;;;3.97;0.80;;;;;;;;;;5090036;28;20497;-64
2023/10/21 11:49:35;;;;;;;3.50;1.00;;;;;;;;;;5090538;28;20020;-65
2023/10/21 11:52:00;;;;;;;2.25;0.73;;;;;;;;;;5089426;28;20039;-65
2023/10/21 11:54:46;;;;;;;3.83;0.85;;;;;;;;;;5088815;28;20036;-66
2023/10/21 12:42:48;;;;;;;3.92;0.85;;;;;;;;;;5071869;28;20046;-65
2023/10/21 12:45:19;;;;;;;4.50;0.80;;;;;;;;;;5065168;28;20060;-64
2023/10/21 12:47:48;;;;;;;3.85;1.10;;;;;;;;;;5046385;28;20053;-65
2023/10/21 12:50:13;;;;;;;2.80;0.70;;;;;;;;;;5049223;28;20020;-64
2023/10/21 12:52:39;;;;;;;3.78;0.65;;;;;;;;;;5047943;28;20020;-65
2023/10/21 12:55:10;;;;;;;2.30;0.65;;;;;;;;;;5057518;28;20026;-64
2023/10/21 12:57:35;;;;;;;2.88;0.82;;;;;;;;;;5058452;28;20024;-73
2023/10/21 13:00:01;;;;;;;6.88;1.08;;;;;;;;;;5046790;28;20147;-65
2023/10/21 13:02:27;;;;;;;2.40;0.82;;;;;;;;;;5045671;28;20131;-64
2023/10/21 13:04:52;;;;;;;3.65;1.27;;;;;;;;;;5047270;28;20020;-65
2023/10/21 13:07:18;;;;;;;4.70;1.20;;;;;;;;;;5054476;28;20077;-64
2023/10/21 13:09:43;;;;;;;5.28;0.90;;;;;;;;;;5078563;28;20282;-65
2023/10/21 13:12:14;;;;;;;4.15;1.15;;;;;;;;;;5083027;28;20493;-64
2023/10/21 13:14:39;;;;;;;4.15;1.25;;;;;;;;;;5063814;28;20036;-65
2023/10/21 13:17:08;;;;;;;6.32;1.00;;;;;;;;;;5063281;28;20032;-64
2023/10/21 13:19:33;;;;;;;3.10;1.00;;;;;;;;;;5069939;28;20495;-64
2023/10/21 13:21:59;;;;;;;3.45;1.00;;;;;;;;;;5078591;28;20040;-65
2023/10/21 13:24:24;;;;;;;5.22;1.00;;;;;;;;;;5076361;28;20024;-64
2023/10/21 13:26:49;;;;;;;2.35;0.63;;;;;;;;;;5082500;28;20082;-64
2023/10/21 13:29:15;;;;;;;5.18;0.88;;;;;;;;;;5061591;28;20918;-64
2023/10/21 13:31:40;;;;;;;4.00;0.95;;;;;;;;;;5064954;28;20016;-64
2023/10/21 13:34:06;;;;;;;3.20;0.98;;;;;;;;;;5066166;28;20028;-64
2023/10/21 13:36:33;;;;;;;5.13;1.05;;;;;;;;;;5074441;28;20071;-64
2023/10/21 13:39:00;;;;;;;2.28;0.85;;;;;;;;;;5083826;28;20050;-64
2023/10/21 13:41:25;;;;;;;2.75;0.63;;;;;;;;;;5092434;28;20498;-64
2023/10/21 13:43:50;;;;;;;4.37;0.60;;;;;;;;;;5089304;28;20028;-64
2023/10/21 13:46:16;;;;;;;4.47;1.02;;;;;;;;;;5090577;28;20284;-64
2023/10/21 13:48:41;;;;;;;1.98;0.55;;;;;;;;;;5077499;28;20032;-65
2023/10/21 13:51:09;;;;;;;2.15;0.80;;;;;;;;;;5078874;28;20089;-65
2023/10/21 13:53:34;;;;;;;3.13;0.93;;;;;;;;;;5072231;28;20119;-65
2023/10/21 13:56:00;;;;;;;3.28;0.80;;;;;;;;;;5069035;28;20032;-65
2023/10/21 13:58:25;;;;;;;1.87;0.73;;;;;;;;;;5056603;28;20024;-64
2023/10/21 14:00:51;;;;;;;1.10;0.38;;;;;;;;;;5089090;28;20313;-64
2023/10/21 14:03:19;;;;;;;2.75;0.77;;;;;;;;;;5082664;28;20027;-65
2023/10/21 14:05:51;;;;;;;6.72;0.90;;;;;;;;;;5091424;28;20023;-65
2023/10/21 14:08:18;;;;;;;3.47;0.75;;;;;;;;;;5092143;28;20257;-64
2023/10/21 14:10:44;;;;;;;5.05;0.85;;;;;;;;;;5089406;28;20107;-65
2023/10/21 14:13:15;;;;;;;3.10;0.85;;;;;;;;;;5091420;28;20389;-64
2023/10/21 14:15:40;;;;;;;3.33;0.70;;;;;;;;;;5056330;28;20106;-65
2023/10/21 14:18:09;;;;;;;3.38;1.00;;;;;;;;;;5061528;28;20137;-65
2023/10/21 14:20:35;;;;;;;3.38;1.02;;;;;;;;;;5090623;28;20101;-64
2023/10/21 14:23:01;;;;;;;1.60;0.50;;;;;;;;;;5059442;28;20131;-64
2023/10/21 14:25:26;;;;;;;2.42;0.90;;;;;;;;;;5060001;28;20024;-64
2023/10/21 14:27:51;;;;;;;2.23;0.60;;;;;;;;;;5066469;28;20035;-64
2023/10/21 14:30:16;;;;;;;4.73;0.97;;;;;;;;;;5057305;28;20281;-64
2023/10/21 14:32:42;;;;;;;7.47;0.70;;;;;;;;;;5054295;28;20273;-64
2023/10/21 14:35:07;;;;;;;3.70;1.00;;;;;;;;;;5048623;28;20032;-64
2023/10/21 14:37:33;;;;;;;3.17;0.70;;;;;;;;;;5049583;28;20024;-64
2023/10/21 14:39:59;;;;;;;2.70;0.77;;;;;;;;;;5051030;28;20038;-64
2023/10/21 14:42:24;;;;;;;4.65;1.05;;;;;;;;;;5053162;28;20036;-64
2023/10/21 14:44:51;;;;;;;7.33;0.97;;;;;;;;;;5062946;28;20064;-64
2023/10/21 14:47:16;;;;;;;3.97;0.80;;;;;;;;;;5056546;28;20335;-64
2023/10/21 14:49:41;;;;;;;4.03;1.20;;;;;;;;;;5057463;28;20470;-64
2023/10/21 14:52:07;;;;;;;1.42;0.43;;;;;;;;;;5054487;28;21267;-64
2023/10/21 14:54:32;;;;;;;2.37;0.73;;;;;;;;;;5055753;28;20024;-63
2023/10/21 14:56:57;;;;;;;1.73;0.70;;;;;;;;;;5061964;28;20282;-64
2023/10/21 14:59:24;;;;;;;7.90;0.80;;;;;;;;;;5073376;28;20368;-64
2023/10/21 15:01:50;;;;;;;2.38;0.77;;;;;;;;;;5068844;28;20278;-64
2023/10/21 15:04:16;;;;;;;1.33;0.60;;;;;;;;;;5066581;28;20439;-64
2023/10/21 15:06:41;;;;;;;3.88;0.60;;;;;;;;;;5064935;28;21131;-64
2023/10/21 15:09:07;;;;;;;2.63;0.80;;;;;;;;;;5065744;28;20104;-64
2023/10/21 15:11:32;;;;;;;4.00;0.75;;;;;;;;;;5064335;28;20028;-64
2023/10/21 15:13:57;;;;;;;3.08;0.73;;;;;;;;;;5074074;28;20028;-64
2023/10/21 15:16:23;;;;;;;2.58;0.70;;;;;;;;;;5054245;28;20024;-64
2023/10/21 15:18:50;;;;;;;1.77;0.53;;;;;;;;;;5083289;28;20086;-65
2023/10/21 15:21:17;;;;;;;2.42;0.73;;;;;;;;;;5074162;28;20270;-64
2023/10/21 15:23:42;;;;;;;2.47;0.60;;;;;;;;;;5075253;28;20121;-63